Terminal Aerodrome Forecast
Issued by NWS

Home | Current Version | Previous Version | Graphics & Text | Print | Product List | Glossary On
Versions: 1 2 3 4 5 6 7 8 9 10 11 12 13 14 15 16 17 18 19
000
FTUS42 KMHX 271737
TAFPGV
TAF
KPGV 271737Z 2718/2818 35006KT P6SM SCT250
     FM272300 03003KT P6SM BKN015
      TEMPO 2801/2804 5SM BR OVC007
     FM280800 03006KT P6SM SCT250
     FM281500 04010KT P6SM BKN150
      AMD LTD TO CLD VIS AND WIND=

USA.gov is the U.S. government's official web portal to all federal, state and local government web resources and services.